Time;durP1;ratioP1;P1;durP2;ratioP2;P2;SDS_P1;SDS_P2;PMS_P1;PMS_P2;Temp;Humidity;BMP_temperature;BMP_pressure;BME280_temperature;BME280_humidity;BME280_pressure;Samples;Min_cycle;Max_cycle;Signal;HPM_P1;HPM_P2
2022/06/19 00:02:24;;;;;;;;;;;26.30;59.30;;;;;;6946472;28;20382;-80
2022/06/19 00:05:48;;;;;;;;;;;26.30;58.20;;;;;;6944973;28;20301;-79
2022/06/19 00:09:09;;;;;;;;;;;26.30;61.60;;;;;;6945898;28;19928;-81
2022/06/19 00:12:31;;;;;;;;;;;26.40;58.20;;;;;;6946442;28;19928;-81
2022/06/19 00:15:54;;;;;;;;;;;26.40;60.70;;;;;;6945615;28;19921;-80
2022/06/19 00:19:16;;;;;;;;;;;26.30;61.20;;;;;;6946642;28;20378;-80
2022/06/19 00:22:40;;;;;;;;;;;26.20;58.40;;;;;;6944702;28;19928;-76
2022/06/19 00:26:02;;;;;;;;;;;26.20;58.80;;;;;;6946452;28;19928;-78
2022/06/19 00:29:26;;;;;;;;;;;26.20;59.10;;;;;;6945312;28;20185;-79
2022/06/19 00:32:47;;;;;;;;;;;26.20;58.90;;;;;;6946286;28;19928;-80
2022/06/19 00:36:10;;;;;;;;;;;26.20;58.80;;;;;;6945064;28;19921;-80
2022/06/19 00:39:39;;;;;;;;;;;26.20;60.70;;;;;;6944360;28;20278;-80
2022/06/19 00:43:01;;;;;;;;;;;26.20;58.10;;;;;;6945768;28;20055;-79
2022/06/19 00:46:46;;;;;;;;;;;26.00;58.80;;;;;;6944649;28;20215;-79
2022/06/19 00:50:21;;;;;;;;;;;26.00;59.90;;;;;;6945366;28;19928;-79
2022/06/19 00:53:46;;;;;;;;;;;26.00;59.00;;;;;;6944561;28;19971;-79
2022/06/19 00:57:09;;;;;;;;;;;26.00;60.30;;;;;;6945327;28;19921;-79
2022/06/19 01:00:32;;;;;;;;;;;26.00;58.70;;;;;;6944946;28;19921;-78
2022/06/19 01:03:58;;;;;;;;;;;26.00;57.70;;;;;;6944862;28;19921;-80
2022/06/19 01:07:21;;;;;;;;;;;26.00;58.60;;;;;;6945252;28;19928;-80
2022/06/19 01:10:45;;;;;;;;;;;26.00;58.90;;;;;;6943979;28;19928;-78
2022/06/19 01:14:10;;;;;;;;;;;25.90;56.90;;;;;;6944256;28;20394;-78
2022/06/19 01:17:34;;;;;;;;;;;25.80;57.90;;;;;;6945317;28;20076;-80
2022/06/19 01:20:58;;;;;;;;;;;25.80;59.50;;;;;;6944518;28;20397;-78
2022/06/19 01:24:25;;;;;;;;;;;25.80;57.10;;;;;;6943782;28;19944;-78
2022/06/19 01:31:32;;;;;;;;;;;25.90;56.40;;;;;;6944367;28;19921;-80
2022/06/19 01:34:54;;;;;;;;;;;25.90;55.30;;;;;;6944492;28;20382;-79
2022/06/19 01:38:18;;;;;;;;;;;26.00;56.10;;;;;;6944036;28;20370;-80
2022/06/19 01:41:40;;;;;;;;;;;26.00;56.60;;;;;;6943242;28;19940;-79
2022/06/19 01:45:04;;;;;;;;;;;25.90;56.40;;;;;;6943959;28;19991;-81
2022/06/19 01:48:28;;;;;;;;;;;25.90;55.80;;;;;;6942916;28;19928;-80
2022/06/19 01:51:51;;;;;;;;;;;25.80;57.60;;;;;;6943291;28;20359;-77
2022/06/19 01:55:16;;;;;;;;;;;25.80;56.10;;;;;;6969601;28;19928;-80
2022/06/19 01:58:40;;;;;;;;;;;25.80;56.00;;;;;;6949912;28;20386;-78
2022/06/19 02:02:06;;;;;;;;;;;25.90;56.20;;;;;;6943704;28;20390;-79
2022/06/19 02:05:28;;;;;;;;;;;25.90;57.40;;;;;;6943521;28;19921;-79
2022/06/19 02:08:51;;;;;;;;;;;25.90;57.10;;;;;;6943385;28;19921;-80
2022/06/19 02:12:13;;;;;;;;;;;25.90;57.40;;;;;;6941752;28;19921;-77
2022/06/19 02:15:35;;;;;;;;;;;25.90;57.50;;;;;;6941383;28;19983;-80
2022/06/19 02:18:59;;;;;;;;;;;25.80;57.30;;;;;;6943331;28;20163;-79
2022/06/19 02:22:21;;;;;;;;;;;25.80;59.20;;;;;;6941365;28;19963;-80
2022/06/19 02:25:45;;;;;;;;;;;25.60;60.90;;;;;;6943129;28;20290;-78
2022/06/19 02:29:09;;;;;;;;;;;25.40;59.60;;;;;;6943250;28;20329;-80
2022/06/19 02:32:35;;;;;;;;;;;25.50;59.90;;;;;;6941698;28;20358;-80
2022/06/19 02:35:58;;;;;;;;;;;25.40;62.00;;;;;;6946041;28;20366;-78
2022/06/19 02:39:33;;;;;;;;;;;25.30;60.90;;;;;;6944741;28;19925;-78
2022/06/19 02:42:55;;;;;;;;;;;25.30;59.10;;;;;;6942899;28;19932;-79
2022/06/19 02:46:16;;;;;;;;;;;25.20;59.00;;;;;;6943003;28;19928;-78
2022/06/19 02:49:39;;;;;;;;;;;25.20;60.50;;;;;;6944831;28;19928;-77
2022/06/19 02:53:03;;;;;;;;;;;25.20;59.10;;;;;;6946012;28;20012;-78
2022/06/19 02:56:25;;;;;;;;;;;25.20;60.10;;;;;;6942018;28;19926;-77
2022/06/19 02:59:47;;;;;;;;;;;25.10;62.60;;;;;;6941963;28;20063;-80
2022/06/19 03:03:16;;;;;;;;;;;25.10;62.10;;;;;;6941238;28;19967;-80
2022/06/19 03:06:38;;;;;;;;;;;25.00;62.60;;;;;;6942539;28;20378;-79
2022/06/19 03:10:02;;;;;;;;;;;24.90;63.80;;;;;;6941750;28;19921;-79
2022/06/19 03:13:25;;;;;;;;;;;24.80;63.80;;;;;;6942417;28;19991;-77
2022/06/19 03:16:47;;;;;;;;;;;24.80;63.20;;;;;;6947978;28;19928;-80
2022/06/19 03:20:13;;;;;;;;;;;24.70;62.80;;;;;;6945643;28;20290;-76
2022/06/19 03:23:35;;;;;;;;;;;24.70;62.40;;;;;;6942629;28;20011;-74
2022/06/19 03:26:58;;;;;;;;;;;24.70;62.60;;;;;;6947236;28;19921;-79
2022/06/19 03:30:21;;;;;;;;;;;24.60;64.60;;;;;;6947172;28;20411;-80
2022/06/19 03:33:43;;;;;;;;;;;24.60;64.80;;;;;;6947404;28;19921;-78
2022/06/19 03:37:06;;;;;;;;;;;24.40;65.70;;;;;;6947281;28;19925;-80
2022/06/19 03:40:27;;;;;;;;;;;24.30;66.40;;;;;;6946517;28;19928;-79
2022/06/19 03:43:51;;;;;;;;;;;24.20;67.20;;;;;;6946388;28;20322;-79
2022/06/19 03:47:16;;;;;;;;;;;24.00;66.90;;;;;;6947007;28;19956;-77
2022/06/19 03:50:39;;;;;;;;;;;23.80;65.90;;;;;;6947102;28;19968;-79
2022/06/19 03:54:01;;;;;;;;;;;23.60;66.40;;;;;;6945955;28;20355;-78
2022/06/19 03:57:23;;;;;;;;;;;23.50;68.90;;;;;;6946613;28;19921;-80
2022/06/19 04:00:46;;;;;;;;;;;23.40;68.00;;;;;;6945910;28;19967;-78
2022/06/19 04:04:09;;;;;;;;;;;23.50;68.00;;;;;;6946554;28;19920;-80
2022/06/19 04:07:31;;;;;;;;;;;23.50;69.30;;;;;;6946444;28;19921;-80
2022/06/19 04:10:53;;;;;;;;;;;23.50;69.40;;;;;;6945292;28;19925;-80
2022/06/19 04:14:16;;;;;;;;;;;23.50;69.80;;;;;;6945598;28;19921;-80
2022/06/19 04:17:39;;;;;;;;;;;23.50;69.50;;;;;;6946680;28;19921;-79
2022/06/19 04:21:03;;;;;;;;;;;23.60;70.00;;;;;;6945532;28;19928;-78
2022/06/19 04:24:25;;;;;;;;;;;23.50;70.00;;;;;;6945876;28;20285;-80
2022/06/19 04:27:46;;;;;;;;;;;23.40;71.30;;;;;;6942824;28;19929;-76
2022/06/19 04:31:09;;;;;;;;;;;23.30;71.80;;;;;;6944397;28;20054;-78
2022/06/19 04:34:32;;;;;;;;;;;23.30;73.00;;;;;;6943581;28;20367;-78
2022/06/19 04:37:54;;;;;;;;;;;23.40;72.90;;;;;;6945834;28;19921;-78
2022/06/19 04:41:18;;;;;;;;;;;23.50;73.00;;;;;;6946166;28;19921;-78
2022/06/19 04:44:40;;;;;;;;;;;23.50;73.50;;;;;;6946044;28;19929;-77
2022/06/19 04:48:01;;;;;;;;;;;23.50;73.60;;;;;;6943662;28;19921;-79
2022/06/19 04:51:25;;;;;;;;;;;23.60;74.00;;;;;;6945174;28;19921;-77
2022/06/19 04:54:47;;;;;;;;;;;23.50;72.50;;;;;;6947062;28;19928;-77
2022/06/19 04:58:09;;;;;;;;;;;23.60;72.40;;;;;;6946570;28;19921;-79
2022/06/19 05:01:33;;;;;;;;;;;23.60;72.70;;;;;;6940641;28;19921;-79
2022/06/19 05:04:55;;;;;;;;;;;23.70;70.90;;;;;;6936968;28;20129;-79
2022/06/19 05:08:18;;;;;;;;;;;23.60;71.80;;;;;;6944070;28;20390;-78
2022/06/19 05:11:40;;;;;;;;;;;23.40;72.00;;;;;;6940813;28;19928;-79
2022/06/19 05:15:01;;;;;;;;;;;23.20;74.10;;;;;;6935035;28;20407;-78
2022/06/19 05:18:23;;;;;;;;;;;23.40;72.50;;;;;;6951776;28;19988;-76
2022/06/19 05:21:45;;;;;;;;;;;23.50;72.20;;;;;;6944260;28;20383;-79
2022/06/19 05:25:09;;;;;;;;;;;23.60;73.40;;;;;;6941179;28;20290;-80
2022/06/19 05:28:33;;;;;;;;;;;23.80;73.10;;;;;;6944114;28;19925;-78
2022/06/19 05:31:55;;;;;;;;;;;23.80;72.90;;;;;;6943453;28;20002;-77
2022/06/19 05:35:17;;;;;;;;;;;24.00;72.80;;;;;;6941356;28;19975;-78
2022/06/19 05:38:39;;;;;;;;;;;24.00;73.90;;;;;;6943266;28;19975;-79
2022/06/19 05:42:03;;;;;;;;;;;24.20;73.50;;;;;;6943954;28;19921;-77
2022/06/19 05:45:25;;;;;;;;;;;24.20;73.00;;;;;;6944176;28;19983;-79
2022/06/19 05:48:47;;;;;;;;;;;24.30;72.70;;;;;;6938398;28;19921;-76
2022/06/19 05:52:17;;;;;;;;;;;24.30;73.60;;;;;;6940150;28;19967;-76
2022/06/19 05:55:39;;;;;;;;;;;24.40;74.40;;;;;;6942396;28;19966;-79
2022/06/19 05:59:02;;;;;;;;;;;24.40;75.10;;;;;;6943364;28;19980;-79
2022/06/19 06:02:26;;;;;;;;;;;24.40;73.30;;;;;;6941542;28;19933;-80
2022/06/19 06:05:49;;;;;;;;;;;24.40;73.30;;;;;;6941730;28;20294;-78
2022/06/19 06:09:13;;;;;;;;;;;24.40;73.20;;;;;;6939536;28;20263;-80
2022/06/19 06:12:35;;;;;;;;;;;24.40;72.90;;;;;;6925854;28;21366;-80
2022/06/19 06:15:59;;;;;;;;;;;24.40;73.50;;;;;;6954839;28;19922;-78
2022/06/19 06:19:21;;;;;;;;;;;24.50;74.10;;;;;;6949708;28;19956;-77
2022/06/19 06:22:43;;;;;;;;;;;24.50;73.70;;;;;;6894820;28;19956;-78
2022/06/19 06:26:08;;;;;;;;;;;24.60;73.20;;;;;;6930225;28;19928;-77
2022/06/19 06:29:30;;;;;;;;;;;24.50;74.00;;;;;;6963775;28;19931;-78
2022/06/19 06:32:53;;;;;;;;;;;24.50;74.10;;;;;;6941534;28;19979;-78
2022/06/19 06:36:15;;;;;;;;;;;24.60;73.80;;;;;;6943343;28;19979;-80
2022/06/19 06:39:37;;;;;;;;;;;24.80;73.50;;;;;;6941789;28;19967;-78
2022/06/19 06:42:59;;;;;;;;;;;24.80;73.10;;;;;;6939064;28;20256;-79
2022/06/19 06:46:23;;;;;;;;;;;24.80;73.20;;;;;;6929627;28;19975;-80
2022/06/19 06:49:46;;;;;;;;;;;24.90;73.50;;;;;;6937990;28;19982;-77
2022/06/19 06:53:09;;;;;;;;;;;25.00;73.80;;;;;;6943927;28;19932;-79
2022/06/19 06:56:32;;;;;;;;;;;25.10;73.50;;;;;;6943108;28;19921;-77
2022/06/19 06:59:54;;;;;;;;;;;25.10;73.40;;;;;;6946363;28;19921;-77
2022/06/19 07:03:16;;;;;;;;;;;25.20;73.40;;;;;;6947891;28;19973;-78
2022/06/19 07:06:39;;;;;;;;;;;25.20;73.80;;;;;;6941282;28;19928;-76
2022/06/19 07:10:01;;;;;;;;;;;25.30;73.90;;;;;;6926437;28;19921;-78
2022/06/19 07:13:23;;;;;;;;;;;25.40;73.80;;;;;;6947705;28;19979;-78
2022/06/19 07:16:44;;;;;;;;;;;25.50;73.90;;;;;;6946675;28;20014;-79
2022/06/19 07:20:07;;;;;;;;;;;25.60;73.90;;;;;;6946272;28;19928;-79
2022/06/19 07:23:30;;;;;;;;;;;25.60;74.70;;;;;;6928212;28;19928;-77
2022/06/19 07:26:52;;;;;;;;;;;25.60;74.30;;;;;;6948300;28;19971;-77
2022/06/19 07:30:16;;;;;;;;;;;25.70;74.40;;;;;;6947123;28;20278;-79
2022/06/19 07:33:38;;;;;;;;;;;25.70;74.30;;;;;;6946214;28;19933;-79
2022/06/19 07:37:00;;;;;;;;;;;25.80;74.90;;;;;;6942489;28;20397;-77
2022/06/19 07:40:25;;;;;;;;;;;25.90;75.20;;;;;;6947757;28;19921;-78
2022/06/19 07:43:50;;;;;;;;;;;25.90;76.30;;;;;;6946631;28;19921;-85
2022/06/19 07:50:52;;;;;;;;;;;26.10;77.00;;;;;;6939900;28;19924;-78
2022/06/19 07:54:14;;;;;;;;;;;26.30;77.20;;;;;;6945694;28;19971;-77
2022/06/19 07:57:38;;;;;;;;;;;26.30;75.80;;;;;;6946830;28;19925;-78
2022/06/19 08:01:00;;;;;;;;;;;26.60;77.00;;;;;;6946934;28;20355;-78
2022/06/19 08:04:23;;;;;;;;;;;26.70;76.90;;;;;;6945707;28;19928;-78
2022/06/19 08:07:45;;;;;;;;;;;26.80;76.20;;;;;;6946193;28;20350;-77
2022/06/19 08:11:07;;;;;;;;;;;27.00;76.10;;;;;;6945314;28;19921;-76
2022/06/19 08:14:30;;;;;;;;;;;27.00;76.60;;;;;;6946478;28;20374;-76
2022/06/19 08:17:52;;;;;;;;;;;27.10;77.10;;;;;;6946231;28;19928;-77
2022/06/19 08:21:14;;;;;;;;;;;27.20;76.70;;;;;;6945355;28;19920;-77
2022/06/19 08:24:36;;;;;;;;;;;27.40;74.60;;;;;;6946389;28;19928;-79
2022/06/19 08:27:58;;;;;;;;;;;27.50;73.20;;;;;;6945614;28;19925;-78
2022/06/19 08:31:21;;;;;;;;;;;27.70;73.00;;;;;;6945249;28;19928;-82
2022/06/19 08:34:43;;;;;;;;;;;27.90;71.70;;;;;;6947532;28;20014;-83
2022/06/19 08:38:07;;;;;;;;;;;28.00;71.50;;;;;;6950978;28;19925;-84
2022/06/19 08:41:45;;;;;;;;;;;28.20;70.80;;;;;;6945434;28;19928;-81
2022/06/19 08:45:21;;;;;;;;;;;28.30;71.00;;;;;;6944946;28;19988;-80
2022/06/19 08:48:53;;;;;;;;;;;28.40;69.70;;;;;;6947976;28;19943;-81
2022/06/19 08:52:24;;;;;;;;;;;28.50;68.40;;;;;;6938613;28;19927;-80
2022/06/19 08:55:51;;;;;;;;;;;28.70;68.60;;;;;;6945709;28;19928;-81
2022/06/19 08:59:19;;;;;;;;;;;28.90;68.20;;;;;;6944127;28;19928;-80
2022/06/19 09:02:55;;;;;;;;;;;29.00;68.10;;;;;;6944033;28;19921;-80
2022/06/19 09:06:22;;;;;;;;;;;29.20;66.50;;;;;;6945295;28;19924;-81
2022/06/19 09:10:02;;;;;;;;;;;29.30;65.40;;;;;;6945534;28;19972;-80
2022/06/19 09:13:37;;;;;;;;;;;29.40;64.90;;;;;;6945165;28;19921;-80
2022/06/19 09:17:03;;;;;;;;;;;29.60;66.40;;;;;;6943431;28;20401;-84
2022/06/19 09:20:34;;;;;;;;;;;29.70;64.20;;;;;;6944228;28;20317;-79
2022/06/19 09:24:08;;;;;;;;;;;29.90;64.40;;;;;;6943634;28;20044;-80
2022/06/19 09:27:32;;;;;;;;;;;29.90;63.80;;;;;;6940489;28;20367;-78
2022/06/19 09:31:02;;;;;;;;;;;30.00;63.60;;;;;;6944567;28;19943;-78
2022/06/19 09:34:28;;;;;;;;;;;30.20;63.50;;;;;;6943873;28;19933;-82
2022/06/19 09:37:53;;;;;;;;;;;30.30;63.20;;;;;;6941665;28;19921;-79
2022/06/19 09:41:27;;;;;;;;;;;30.50;62.20;;;;;;6940175;28;20286;-77
2022/06/19 09:44:52;;;;;;;;;;;30.60;62.40;;;;;;6948175;28;20291;-78
2022/06/19 09:48:20;;;;;;;;;;;30.70;62.60;;;;;;6947454;28;19956;-78
2022/06/19 09:51:48;;;;;;;;;;;30.80;59.70;;;;;;6955825;28;19967;-77
2022/06/19 09:55:16;;;;;;;;;;;30.90;60.70;;;;;;6941710;28;19928;-78
2022/06/19 09:58:45;;;;;;;;;;;31.10;58.20;;;;;;6941212;28;19921;-78
2022/06/19 10:02:14;;;;;;;;;;;31.10;58.00;;;;;;6943785;28;19936;-78
2022/06/19 10:05:39;;;;;;;;;;;31.20;57.40;;;;;;6942027;28;19995;-80
2022/06/19 10:09:05;;;;;;;;;;;31.40;56.90;;;;;;6939945;28;20445;-79
2022/06/19 10:12:33;;;;;;;;;;;31.40;55.80;;;;;;6941935;28;19925;-79
2022/06/19 10:15:58;;;;;;;;;;;31.50;56.70;;;;;;6938339;28;19920;-78
2022/06/19 10:19:26;;;;;;;;;;;31.50;55.40;;;;;;6942418;28;20321;-79
2022/06/19 10:22:58;;;;;;;;;;;31.60;56.00;;;;;;6943222;28;19932;-77
2022/06/19 10:26:31;;;;;;;;;;;31.80;56.20;;;;;;6940873;28;20355;-80
2022/06/19 10:29:58;;;;;;;;;;;31.80;55.70;;;;;;6942158;28;19974;-80
2022/06/19 10:33:27;;;;;;;;;;;31.90;55.90;;;;;;6929485;28;19936;-82
2022/06/19 10:36:58;;;;;;;;;;;31.90;53.70;;;;;;6942921;28;19921;-81
2022/06/19 10:40:32;;;;;;;;;;;31.90;53.60;;;;;;6929851;28;19921;-80
2022/06/19 10:44:02;;;;;;;;;;;32.00;53.90;;;;;;6940753;28;19925;-78
2022/06/19 10:47:33;;;;;;;;;;;32.00;53.50;;;;;;6942454;28;19920;-78
2022/06/19 10:51:04;;;;;;;;;;;32.10;53.30;;;;;;6941668;28;19928;-79
2022/06/19 10:54:42;;;;;;;;;;;32.10;54.20;;;;;;6941646;28;19924;-82
2022/06/19 10:58:14;;;;;;;;;;;32.20;52.90;;;;;;6938942;28;19975;-76
2022/06/19 11:05:23;;;;;;;;;;;32.30;52.40;;;;;;6942991;28;20285;-77
2022/06/19 11:08:51;;;;;;;;;;;32.40;53.20;;;;;;6942592;28;19932;-79
2022/06/19 11:12:19;;;;;;;;;;;32.40;51.50;;;;;;6934876;28;19976;-77
2022/06/19 11:15:43;;;;;;;;;;;32.40;51.20;;;;;;6937484;28;19921;-76
2022/06/19 11:19:06;;;;;;;;;;;32.50;50.80;;;;;;6938795;28;20138;-76
2022/06/19 11:22:34;;;;;;;;;;;32.50;50.90;;;;;;6937838;28;20012;-78
2022/06/19 11:26:09;;;;;;;;;;;32.60;50.90;;;;;;6937938;28;19928;-78
2022/06/19 11:29:32;;;;;;;;;;;32.60;49.70;;;;;;6937328;28;19937;-78
2022/06/19 11:32:54;;;;;;;;;;;32.60;47.80;;;;;;6939227;28;19921;-77
2022/06/19 11:36:33;;;;;;;;;;;32.70;47.70;;;;;;6939247;28;20011;-77
2022/06/19 11:40:10;;;;;;;;;;;32.80;47.30;;;;;;6921138;28;19929;-78
2022/06/19 11:43:33;;;;;;;;;;;32.80;47.50;;;;;;6941245;28;19998;-77
2022/06/19 11:46:56;;;;;;;;;;;33.00;48.40;;;;;;6945259;28;19937;-77
2022/06/19 11:50:21;;;;;;;;;;;33.00;47.50;;;;;;6946227;28;19925;-79
2022/06/19 11:53:44;;;;;;;;;;;33.00;47.30;;;;;;6946754;28;19921;-79
2022/06/19 11:57:06;;;;;;;;;;;33.10;47.10;;;;;;6947796;28;19921;-78
2022/06/19 12:00:32;;;;;;;;;;;33.30;46.40;;;;;;6946832;28;19931;-78
2022/06/19 12:03:56;;;;;;;;;;;33.30;46.70;;;;;;6946233;28;20382;-79
2022/06/19 12:07:20;;;;;;;;;;;33.30;47.10;;;;;;6946381;28;19928;-79
2022/06/19 12:10:42;;;;;;;;;;;33.40;46.10;;;;;;6945867;28;20004;-78
2022/06/19 12:14:05;;;;;;;;;;;33.50;47.00;;;;;;6945727;28;19921;-77
2022/06/19 12:17:39;;;;;;;;;;;33.60;46.80;;;;;;6946060;28;19928;-77
2022/06/19 12:21:04;;;;;;;;;;;33.60;46.00;;;;;;6946529;28;20378;-76
2022/06/19 12:24:31;;;;;;;;;;;33.60;45.90;;;;;;6945018;28;19928;-76
2022/06/19 12:27:57;;;;;;;;;;;33.70;45.20;;;;;;6944940;28;19921;-77
2022/06/19 12:31:20;;;;;;;;;;;33.80;45.40;;;;;;6944991;28;19931;-76
2022/06/19 12:34:47;;;;;;;;;;;33.80;44.50;;;;;;6945814;28;19974;-77
2022/06/19 12:38:12;;;;;;;;;;;33.90;44.00;;;;;;6926644;28;20019;-77
2022/06/19 12:41:39;;;;;;;;;;;34.10;43.50;;;;;;6923689;28;19925;-78
2022/06/19 12:45:10;;;;;;;;;;;34.10;43.10;;;;;;6947248;28;19928;-79
2022/06/19 12:48:39;;;;;;;;;;;34.30;43.50;;;;;;6951907;28;19928;-78
2022/06/19 12:52:11;;;;;;;;;;;34.20;43.10;;;;;;6949738;28;20377;-82
2022/06/19 12:55:40;;;;;;;;;;;34.30;43.10;;;;;;6944731;28;19967;-77
2022/06/19 12:59:24;;;;;;;;;;;34.40;43.70;;;;;;6940773;28;19932;-78
2022/06/19 13:03:09;;;;;;;;;;;34.40;43.00;;;;;;6929339;28;20339;-78
2022/06/19 13:06:39;;;;;;;;;;;34.40;42.60;;;;;;6918645;28;19921;-81
2022/06/19 13:10:28;;;;;;;;;;;34.40;43.40;;;;;;6922657;28;20264;-77
2022/06/19 13:14:03;;;;;;;;;;;34.50;44.00;;;;;;6917606;28;19932;-79
2022/06/19 13:17:27;;;;;;;;;;;34.60;42.80;;;;;;6938425;28;20366;-78
2022/06/19 13:20:55;;;;;;;;;;;34.70;43.00;;;;;;6943371;28;19947;-77
2022/06/19 13:24:26;;;;;;;;;;;34.80;42.50;;;;;;6941693;28;20344;-79
2022/06/19 13:27:58;;;;;;;;;;;34.80;42.70;;;;;;6942743;28;19920;-79
2022/06/19 13:31:25;;;;;;;;;;;34.80;42.30;;;;;;6943199;28;20281;-80
2022/06/19 13:34:56;;;;;;;;;;;34.90;42.20;;;;;;6942546;28;19928;-79
2022/06/19 13:38:41;;;;;;;;;;;35.00;42.00;;;;;;6940647;28;19925;-81
2022/06/19 13:42:31;;;;;;;;;;;34.90;41.40;;;;;;6937489;28;20325;-76
2022/06/19 13:46:01;;;;;;;;;;;35.00;41.80;;;;;;6938972;28;20306;-82
2022/06/19 13:49:29;;;;;;;;;;;35.10;42.30;;;;;;6941732;28;20087;-81
2022/06/19 13:52:58;;;;;;;;;;;35.20;41.50;;;;;;6943288;28;19932;-82
2022/06/19 13:56:25;;;;;;;;;;;35.20;42.20;;;;;;6934894;28;19936;-84
2022/06/19 14:00:16;;;;;;;;;;;35.40;41.20;;;;;;6932398;28;19983;-82
2022/06/19 14:07:55;;;;;;;;;;;35.60;39.80;;;;;;6946939;28;19921;-82
2022/06/19 14:11:19;;;;;;;;;;;35.70;41.00;;;;;;6936290;28;19947;-83
2022/06/19 14:14:43;;;;;;;;;;;35.80;41.00;;;;;;6943693;28;19928;-80
2022/06/19 14:18:09;;;;;;;;;;;35.90;40.30;;;;;;6932932;28;20386;-82
2022/06/19 14:21:43;;;;;;;;;;;35.90;39.50;;;;;;6939769;28;19928;-84
2022/06/19 14:25:16;;;;;;;;;;;36.00;40.10;;;;;;6932778;28;19932;-81
2022/06/19 14:28:47;;;;;;;;;;;36.10;40.50;;;;;;6928196;28;19920;-83
2022/06/19 14:32:15;;;;;;;;;;;36.20;38.40;;;;;;6944217;28;19948;-82
2022/06/19 14:35:38;;;;;;;;;;;36.10;38.80;;;;;;6950878;28;19975;-83
2022/06/19 14:39:36;;;;;;;;;;;36.20;39.00;;;;;;6940694;28;20019;-81
2022/06/19 14:42:59;;;;;;;;;;;36.20;38.90;;;;;;6946681;28;19928;-80
2022/06/19 14:47:00;;;;;;;;;;;36.30;38.80;;;;;;6938779;28;19976;-80
2022/06/19 14:50:38;;;;;;;;;;;36.40;38.90;;;;;;6945506;28;19982;-84
2022/06/19 14:54:13;;;;;;;;;;;36.50;39.30;;;;;;6940998;28;19921;-82
2022/06/19 14:57:36;;;;;;;;;;;36.50;39.30;;;;;;6941892;28;19967;-78
2022/06/19 15:01:01;;;;;;;;;;;36.60;39.20;;;;;;6937000;28;19964;-80
2022/06/19 15:04:25;;;;;;;;;;;36.70;39.40;;;;;;6936073;28;20559;-78
2022/06/19 15:07:47;;;;;;;;;;;36.60;39.20;;;;;;6937312;28;19964;-78
2022/06/19 15:11:23;;;;;;;;;;;36.60;38.60;;;;;;6935614;28;20405;-79
2022/06/19 15:14:48;;;;;;;;;;;36.50;39.00;;;;;;6938494;28;20337;-78
2022/06/19 15:18:18;;;;;;;;;;;36.50;38.60;;;;;;6938804;28;19971;-78
2022/06/19 15:21:54;;;;;;;;;;;36.50;38.80;;;;;;6939260;28;19936;-79
2022/06/19 15:25:29;;;;;;;;;;;36.50;39.10;;;;;;6944513;28;19928;-77
2022/06/19 15:29:04;;;;;;;;;;;36.70;39.50;;;;;;6946672;28;19921;-76
2022/06/19 15:32:56;;;;;;;;;;;36.80;39.00;;;;;;6939543;28;20058;-77
2022/06/19 15:36:19;;;;;;;;;;;36.80;39.60;;;;;;6935230;28;19928;-80
2022/06/19 15:39:46;;;;;;;;;;;36.70;39.40;;;;;;6929906;28;19964;-78
2022/06/19 15:43:39;;;;;;;;;;;36.70;38.90;;;;;;6945867;28;19971;-79
2022/06/19 15:47:04;;;;;;;;;;;36.70;38.80;;;;;;6937194;28;19974;-80
2022/06/19 15:50:30;;;;;;;;;;;36.80;39.20;;;;;;6945338;28;19921;-78
2022/06/19 15:53:54;;;;;;;;;;;36.70;38.70;;;;;;6936623;28;19921;-79
2022/06/19 15:57:20;;;;;;;;;;;36.70;38.30;;;;;;6946109;28;19932;-80
2022/06/19 16:00:44;;;;;;;;;;;36.90;38.50;;;;;;6945801;28;20397;-79
2022/06/19 16:04:13;;;;;;;;;;;37.40;37.20;;;;;;6945294;28;19925;-76
2022/06/19 16:07:39;;;;;;;;;;;37.30;37.10;;;;;;6944764;28;19921;-78
2022/06/19 16:11:01;;;;;;;;;;;37.10;37.00;;;;;;6946553;28;19921;-79
2022/06/19 16:14:26;;;;;;;;;;;37.10;37.70;;;;;;6946488;28;19928;-78
2022/06/19 16:17:53;;;;;;;;;;;37.00;37.50;;;;;;6946337;28;19928;-78
2022/06/19 16:21:17;;;;;;;;;;;37.00;38.20;;;;;;6946537;28;19921;-80
2022/06/19 16:24:58;;;;;;;;;;;37.10;38.30;;;;;;6945349;28;19928;-80
2022/06/19 16:28:23;;;;;;;;;;;37.30;38.60;;;;;;6940318;28;19929;-80
2022/06/19 16:31:49;;;;;;;;;;;37.10;38.10;;;;;;6931632;28;19975;-81
2022/06/19 16:46:25;;;;;;;;;;;37.40;37.70;;;;;;6939817;28;20004;-81
2022/06/19 16:49:57;;;;;;;;;;;37.40;37.70;;;;;;6940436;28;19932;-79
2022/06/19 16:53:20;;;;;;;;;;;37.50;37.60;;;;;;6941340;28;20333;-79
2022/06/19 16:56:43;;;;;;;;;;;37.50;37.50;;;;;;6939607;28;19928;-81
2022/06/19 17:00:11;;;;;;;;;;;37.50;37.80;;;;;;6940476;28;19936;-81
2022/06/19 17:03:38;;;;;;;;;;;37.50;37.90;;;;;;6940202;28;19921;-80
2022/06/19 17:07:02;;;;;;;;;;;37.50;37.70;;;;;;6940367;28;19929;-78
2022/06/19 17:10:25;;;;;;;;;;;37.60;38.50;;;;;;6941368;28;20302;-79
2022/06/19 17:13:50;;;;;;;;;;;37.60;38.10;;;;;;6941997;28;19921;-78
2022/06/19 17:17:21;;;;;;;;;;;37.70;38.30;;;;;;6942861;28;19968;-77
2022/06/19 17:20:43;;;;;;;;;;;37.60;39.00;;;;;;6943394;28;20399;-77
2022/06/19 17:24:11;;;;;;;;;;;37.60;39.40;;;;;;6945420;28;20305;-78
2022/06/19 17:27:55;;;;;;;;;;;37.70;39.60;;;;;;6950876;28;19921;-76
2022/06/19 17:31:21;;;;;;;;;;;37.80;39.90;;;;;;6944176;28;19925;-78
2022/06/19 17:34:43;;;;;;;;;;;37.80;41.20;;;;;;6942855;28;19924;-77
2022/06/19 17:38:16;;;;;;;;;;;37.80;41.70;;;;;;6943435;28;19929;-77
2022/06/19 17:41:40;;;;;;;;;;;37.80;42.80;;;;;;6943676;28;20263;-78
2022/06/19 17:45:04;;;;;;;;;;;37.80;42.10;;;;;;6943033;28;20032;-78
2022/06/19 17:48:31;;;;;;;;;;;37.80;42.90;;;;;;6941074;28;19928;-78
2022/06/19 17:52:14;;;;;;;;;;;37.80;43.30;;;;;;6939137;28;20358;-77
2022/06/19 17:55:38;;;;;;;;;;;37.80;44.50;;;;;;6927230;28;19971;-78
2022/06/19 17:59:03;;;;;;;;;;;37.70;45.30;;;;;;6923689;28;20024;-78
2022/06/19 18:02:28;;;;;;;;;;;37.60;48.20;;;;;;6940613;28;19925;-77
2022/06/19 18:05:53;;;;;;;;;;;37.50;50.90;;;;;;6938277;28;19929;-79
2022/06/19 18:09:21;;;;;;;;;;;37.40;47.00;;;;;;6938415;28;19982;-79
2022/06/19 18:12:43;;;;;;;;;;;37.30;46.30;;;;;;6940395;28;19948;-78
2022/06/19 18:19:46;;;;;;;;;;;36.80;50.50;;;;;;6938909;28;19921;-79
2022/06/19 18:23:09;;;;;;;;;;;36.70;51.90;;;;;;6939774;28;20375;-78
2022/06/19 18:26:35;;;;;;;;;;;36.50;48.80;;;;;;6939327;28;20449;-77
2022/06/19 18:30:02;;;;;;;;;;;36.40;50.40;;;;;;6938087;28;19932;-79
2022/06/19 18:33:25;;;;;;;;;;;36.10;55.40;;;;;;6928454;28;19921;-78
2022/06/19 18:36:48;;;;;;;;;;;36.00;53.80;;;;;;6939097;28;19948;-77
2022/06/19 18:40:14;;;;;;;;;;;35.90;48.60;;;;;;6938914;28;20384;-77
2022/06/19 18:43:36;;;;;;;;;;;35.80;47.10;;;;;;6938753;28;19932;-77
2022/06/19 18:47:01;;;;;;;;;;;34.80;49.70;;;;;;6939919;28;19952;-79
2022/06/19 18:50:24;;;;;;;;;;;34.80;50.60;;;;;;6938782;28;19932;-77
2022/06/19 18:53:46;;;;;;;;;;;34.90;50.60;;;;;;6954311;28;20363;-79
2022/06/19 18:57:12;;;;;;;;;;;35.00;50.50;;;;;;6944792;28;19925;-79
2022/06/19 19:00:34;;;;;;;;;;;34.90;51.00;;;;;;6936819;28;19975;-78
2022/06/19 19:03:57;;;;;;;;;;;34.80;54.00;;;;;;6944817;28;19925;-78
2022/06/19 19:07:21;;;;;;;;;;;34.50;56.10;;;;;;6942586;28;19924;-79
2022/06/19 19:10:47;;;;;;;;;;;34.30;55.30;;;;;;6943867;28;19932;-77
2022/06/19 19:14:11;;;;;;;;;;;34.20;54.70;;;;;;6944408;28;20341;-80
2022/06/19 19:17:33;;;;;;;;;;;34.10;53.80;;;;;;6943291;28;19928;-81
2022/06/19 19:20:57;;;;;;;;;;;33.40;56.30;;;;;;6943415;28;19928;-79
2022/06/19 19:24:19;;;;;;;;;;;33.30;56.40;;;;;;6942273;28;19928;-78
2022/06/19 19:27:41;;;;;;;;;;;33.20;56.60;;;;;;6941707;28;19976;-77
2022/06/19 19:31:06;;;;;;;;;;;32.90;58.10;;;;;;6935563;28;19928;-78
2022/06/19 19:34:29;;;;;;;;;;;32.50;59.10;;;;;;6937693;28;19959;-81
2022/06/19 19:37:53;;;;;;;;;;;32.30;56.70;;;;;;6943706;28;20353;-80
2022/06/19 19:41:15;;;;;;;;;;;32.30;56.30;;;;;;6943759;28;19921;-81
2022/06/19 19:44:38;;;;;;;;;;;32.20;56.40;;;;;;6940547;28;19924;-80
2022/06/19 19:48:03;;;;;;;;;;;31.90;58.80;;;;;;6941256;28;19928;-81
2022/06/19 19:51:25;;;;;;;;;;;31.40;61.00;;;;;;6943092;28;19967;-82
2022/06/19 19:54:48;;;;;;;;;;;31.00;61.20;;;;;;6942452;28;20373;-78
2022/06/19 19:58:13;;;;;;;;;;;30.90;59.40;;;;;;6940621;28;19932;-79
2022/06/19 20:01:35;;;;;;;;;;;31.10;58.90;;;;;;6941649;28;20302;-81
2022/06/19 20:04:58;;;;;;;;;;;31.10;59.70;;;;;;6941729;28;20390;-85
2022/06/19 20:12:00;;;;;;;;;;;31.00;60.30;;;;;;6941235;28;19969;-84
2022/06/19 20:15:22;;;;;;;;;;;30.90;61.60;;;;;;6941806;28;19920;-85
2022/06/19 20:18:44;;;;;;;;;;;30.90;59.90;;;;;;6945868;28;20043;-86
2022/06/19 20:22:10;;;;;;;;;;;30.90;59.70;;;;;;6946636;28;20369;-84
2022/06/19 20:25:34;;;;;;;;;;;30.90;59.60;;;;;;6946077;28;19928;-83
2022/06/19 20:29:01;;;;;;;;;;;30.80;60.10;;;;;;6946829;28;19928;-84
2022/06/19 20:32:25;;;;;;;;;;;30.70;59.50;;;;;;6951447;28;19952;-82